Time;durP1;ratioP1;P1;durP2;ratioP2;P2;SDS_P1;SDS_P2;PMS_P1;PMS_P2;Temp;Humidity;BMP_temperature;BMP_pressure;BME280_temperature;BME280_humidity;BME280_pressure;Samples;Min_cycle;Max_cycle;Signal;HPM_P1;HPM_P2
2022/08/11 00:01:26;;;;;;;3.17;1.90;;;;;;;14.32;58.36;97771.94;5025668;28;20428;-56
2022/08/11 00:03:56;;;;;;;4.82;2.38;;;;;;;14.36;58.28;97769.50;5025492;28;20049;-57
2022/08/11 00:06:29;;;;;;;4.07;2.22;;;;;;;14.33;58.71;97770.84;5042435;28;20505;-56
2022/08/11 00:08:57;;;;;;;4.03;2.22;;;;;;;14.00;59.77;97762.81;5044994;28;20102;-54
2022/08/11 00:11:47;;;;;;;4.00;2.10;;;;;;;13.86;60.33;97764.38;5035609;28;20455;-55
2022/08/11 00:14:21;;;;;;;6.35;2.08;;;;;;;13.94;60.02;97771.22;5027147;28;20045;-58
2022/08/11 00:17:07;;;;;;;4.28;2.35;;;;;;;14.17;59.15;97773.53;5025884;28;20049;-58
2022/08/11 00:19:41;;;;;;;3.00;2.00;;;;;;;13.92;60.09;97763.31;5029491;28;20044;-57
2022/08/11 00:22:29;;;;;;;3.38;1.60;;;;;;;13.60;61.67;97765.03;5034238;28;20571;-57
2022/08/11 00:24:56;;;;;;;5.22;2.83;;;;;;;13.62;61.38;97762.06;5032048;28;20049;-58
2022/08/11 00:27:35;;;;;;;5.80;2.70;;;;;;;13.64;61.12;97766.16;5045048;28;20103;-57
2022/08/11 00:30:05;;;;;;;4.25;2.10;;;;;;;13.74;60.64;97776.28;5044905;28;20056;-57
2022/08/11 00:32:32;;;;;;;5.65;2.30;;;;;;;13.75;61.14;97769.75;5032756;28;20104;-58
2022/08/11 00:35:01;;;;;;;5.10;2.00;;;;;;;13.84;60.53;97774.69;5030865;28;20045;-57
2022/08/11 00:37:50;;;;;;;4.05;2.00;;;;;;;13.99;59.94;97771.25;5045413;28;20048;-58
2022/08/11 00:40:40;;;;;;;4.18;2.08;;;;;;;14.15;59.34;97769.41;5044267;28;20253;-58
2022/08/11 00:43:30;;;;;;;3.85;2.08;;;;;;;14.13;59.42;97777.03;5027546;28;20045;-58
2022/08/11 00:46:27;;;;;;;4.32;2.00;;;;;;;14.15;59.72;97780.31;5025811;28;20140;-57
2022/08/11 00:49:51;;;;;;;4.05;2.13;;;;;;;14.29;58.79;97778.75;5025564;28;20052;-58
2022/08/11 00:52:53;;;;;;;3.40;2.10;;;;;;;14.01;60.21;97771.81;4982677;28;20042;-58
2022/08/11 00:55:42;;;;;;;3.92;2.03;;;;;;;14.03;59.97;97765.00;5032050;28;20041;-58
2022/08/11 00:58:47;;;;;;;3.27;2.03;;;;;;;13.88;60.83;97763.03;5045621;28;20103;-58
2022/08/11 01:01:16;;;;;;;3.20;2.00;;;;;;;13.91;60.29;97770.69;5027040;28;20060;-57
2022/08/11 01:04:31;;;;;;;7.13;2.10;;;;;;;13.88;60.60;97763.03;5043776;28;20138;-56
2022/08/11 01:07:00;;;;;;;4.53;2.30;;;;;;;13.94;60.47;97765.78;5046459;28;20407;-56
2022/08/11 01:09:39;;;;;;;5.28;2.00;;;;;;;13.87;60.84;97758.69;5044309;28;20092;-56
2022/08/11 01:12:43;;;;;;;3.35;2.28;;;;;;;13.81;60.90;97762.44;5028774;28;20044;-57
2022/08/11 01:15:40;;;;;;;3.25;1.88;;;;;;;13.68;61.26;97765.63;5036428;28;20052;-57
2022/08/11 01:18:47;;;;;;;4.47;2.17;;;;;;;13.54;62.19;97771.53;5048763;28;20045;-58
2022/08/11 01:21:29;;;;;;;3.80;1.90;;;;;;;13.45;62.45;97773.88;5038191;28;20044;-57
2022/08/11 01:24:47;;;;;;;4.43;2.38;;;;;;;13.37;62.60;97772.47;5063258;28;20417;-57
2022/08/11 01:27:32;;;;;;;4.57;2.00;;;;;;;13.17;63.22;97772.31;5031334;28;20098;-56
2022/08/11 01:30:19;;;;;;;3.47;2.03;;;;;;;13.17;63.14;97766.88;5040610;28;20041;-58
2022/08/11 01:33:04;;;;;;;5.07;2.17;;;;;;;13.12;63.34;97771.19;5042691;28;20090;-58
2022/08/11 01:36:08;;;;;;;5.18;2.30;;;;;;;13.28;62.89;97768.59;5047773;28;20059;-58
2022/08/11 01:38:49;;;;;;;7.07;2.40;;;;;;;13.25;63.16;97761.78;5043411;28;20053;-57
2022/08/11 01:44:36;;;;;;;;;;;;;;;13.33;62.69;97759.63;5041509;28;20500;-57
2022/08/11 01:44:45;;;;;;;3.90;2.55;;;;;;;13.11;63.78;97755.94;5032460;28;19925;-57
2022/08/11 01:47:51;;;;;;;3.33;2.20;;;;;;;13.22;63.08;97759.56;5028410;28;20045;-58
2022/08/11 01:50:25;;;;;;;3.55;2.22;;;;;;;13.30;62.98;97758.25;5028385;28;20042;-57
2022/08/11 01:52:57;;;;;;;5.88;2.45;;;;;;;13.04;64.33;97755.34;5046699;28;20518;-58
2022/08/11 01:55:36;;;;;;;3.83;2.17;;;;;;;13.11;63.76;97758.69;5034091;28;20057;-57
2022/08/11 01:58:24;;;;;;;3.33;2.20;;;;;;;13.36;63.03;97750.97;5028118;28;20037;-56
2022/08/11 02:01:33;;;;;;;4.13;2.22;;;;;;;13.16;64.07;97754.34;5031474;28;20036;-58
2022/08/11 02:04:21;;;;;;;3.75;2.08;;;;;;;13.14;63.97;97749.19;5046332;28;20083;-58
2022/08/11 02:07:08;;;;;;;3.90;2.10;;;;;;;13.24;63.55;97746.53;5028391;28;20049;-58
2022/08/11 02:09:59;;;;;;;5.65;2.17;;;;;;;13.30;63.58;97746.59;5034208;28;20048;-58
2022/08/11 02:12:45;;;;;;;4.10;2.58;;;;;;;13.09;64.43;97744.50;5028892;28;20128;-57
2022/08/11 02:15:35;;;;;;;3.83;2.30;;;;;;;12.92;65.12;97741.94;5039618;28;20063;-58
2022/08/11 02:18:17;;;;;;;5.18;2.38;;;;;;;13.08;64.68;97742.88;5048195;28;20048;-57
2022/08/11 02:24:04;;;;;;;4.88;2.58;;;;;;;13.23;64.21;97739.47;5028330;28;20307;-57
2022/08/11 02:26:45;;;;;;;4.35;2.13;;;;;;;13.08;65.14;97744.78;5027267;28;20421;-58
2022/08/11 02:29:31;;;;;;;5.75;2.35;;;;;;;13.20;64.86;97750.03;5029403;28;20045;-58
2022/08/11 02:35:27;;;;;;;4.00;2.60;;;;;;;13.62;62.62;97760.16;5045615;28;20048;-58
2022/08/11 02:38:15;;;;;;;3.95;2.47;;;;;;;12.98;65.10;97740.88;5041466;28;20068;-56
2022/08/11 02:41:01;;;;;;;7.05;2.40;;;;;;;13.23;64.65;97750.34;5040626;28;20106;-58
2022/08/11 02:43:39;;;;;;;5.63;2.50;;;;;;;13.09;65.06;97749.94;5030518;28;20049;-58
2022/08/11 02:46:30;;;;;;;5.03;2.03;;;;;;;12.83;66.29;97757.88;5042316;28;20670;-58
2022/08/11 02:52:36;;;;;;;4.18;2.38;;;;;;;12.68;66.68;97761.25;5026774;28;20084;-57
2022/08/11 02:55:16;;;;;;;5.38;2.50;;;;;;;12.77;66.51;97763.50;5034929;28;20098;-58
2022/08/11 02:58:25;;;;;;;3.97;2.30;;;;;;;12.52;67.06;97756.72;5046562;28;20049;-56
2022/08/11 03:01:04;;;;;;;5.30;2.58;;;;;;;12.37;67.95;97760.94;5028096;28;20050;-55
2022/08/11 03:03:43;;;;;;;4.05;2.33;;;;;;;12.48;67.20;97764.59;5031523;28;20036;-57
2022/08/11 03:06:36;;;;;;;4.05;2.25;;;;;;;12.58;67.15;97762.00;5045530;28;20052;-57
2022/08/11 03:09:03;;;;;;;5.80;2.50;;;;;;;12.57;67.10;97759.53;5046782;28;20037;-57
2022/08/11 03:17:51;;;;;;;5.78;2.72;;;;;;;12.31;68.13;97756.53;5045976;28;20107;-54
2022/08/11 03:20:27;;;;;;;5.10;3.15;;;;;;;12.35;67.71;97752.22;5040865;28;20440;-55
2022/08/11 03:23:25;;;;;;;5.90;3.10;;;;;;;12.28;67.89;97754.31;5044729;28;20037;-52
2022/08/11 03:26:26;;;;;;;4.43;2.78;;;;;;;12.30;67.92;97755.69;5033617;28;20065;-54
2022/08/11 03:29:18;;;;;;;8.52;2.67;;;;;;;12.23;68.31;97757.78;5044172;28;20045;-53
2022/08/11 03:32:00;;;;;;;4.00;2.67;;;;;;;12.39;67.64;97764.22;5026115;28;20056;-53
2022/08/11 03:34:30;;;;;;;5.25;3.13;;;;;;;12.29;68.08;97769.53;5030884;28;20163;-57
2022/08/11 03:43:41;;;;;;;4.13;2.63;;;;;;;11.75;70.38;97774.50;5025789;28;20092;-56
2022/08/11 03:47:05;;;;;;;5.87;3.00;;;;;;;11.83;69.91;97774.06;5042779;28;20098;-54
2022/08/11 03:50:09;;;;;;;7.40;3.00;;;;;;;11.77;70.12;97777.81;5037523;28;20523;-56
2022/08/11 03:53:27;;;;;;;5.15;2.80;;;;;;;12.02;69.12;97781.91;5025661;28;20494;-56
2022/08/11 03:56:37;;;;;;;5.97;2.80;;;;;;;12.02;68.84;97781.09;5043974;28;20064;-56
2022/08/11 03:59:22;;;;;;;4.13;3.10;;;;;;;11.88;69.97;97772.50;5042079;28;20037;-57
2022/08/11 04:02:14;;;;;;;5.88;3.10;;;;;;;11.78;69.97;97781.31;5032130;28;20114;-57
2022/08/11 04:05:19;;;;;;;6.20;3.65;;;;;;;11.86;69.52;97777.38;5043941;28;20048;-56
2022/08/11 04:07:46;;;;;;;5.20;2.97;;;;;;;11.93;69.01;97770.69;5038956;28;20041;-56
2022/08/11 04:10:41;;;;;;;4.70;2.97;;;;;;;11.99;68.96;97765.31;5041726;28;20516;-56
2022/08/11 04:13:41;;;;;;;5.25;3.13;;;;;;;12.20;68.04;97771.88;5023285;28;20115;-57
2022/08/11 04:16:37;;;;;;;5.00;2.53;;;;;;;12.28;67.41;97771.44;5033063;28;20068;-56
2022/08/11 04:19:31;;;;;;;6.20;2.90;;;;;;;12.04;68.78;97778.94;5037999;28;20456;-55
2022/08/11 04:22:22;;;;;;;4.55;2.70;;;;;;;12.09;68.39;97770.94;5035696;28;20090;-54
2022/08/11 04:25:15;;;;;;;5.25;2.58;;;;;;;12.25;67.53;97771.94;5039793;28;20163;-53
2022/08/11 04:27:56;;;;;;;9.63;5.25;;;;;;;12.16;68.21;97773.44;5043115;28;20509;-53
2022/08/11 04:30:50;;;;;;;6.90;4.22;;;;;;;12.06;68.37;97776.84;5043253;28;20052;-55
2022/08/11 04:33:35;;;;;;;7.55;4.25;;;;;;;11.99;68.87;97773.47;5042522;28;20115;-57
2022/08/11 04:39:25;;;;;;;5.72;2.80;;;;;;;12.03;68.75;97772.72;5038102;28;20037;-55
2022/08/11 04:45:45;;;;;;;6.45;3.00;;;;;;;11.94;69.08;97774.22;5035317;28;20488;-54
2022/08/11 05:01:42;;;;;;;7.90;3.08;;;;;;;12.65;66.57;97775.38;5036052;28;20041;-55
2022/08/11 05:05:29;;;;;;;4.65;2.90;;;;;;;12.82;65.85;97777.16;5046313;28;20472;-57
2022/08/11 05:07:29;;;;;;;5.55;2.97;;;;;;;12.80;66.25;97782.03;5034171;28;20048;-56
2022/08/11 05:10:36;;;;;;;6.07;3.03;;;;;;;12.87;66.04;97783.44;5043160;28;20476;-54
2022/08/11 05:36:53;;;;;;;8.32;3.15;;;;;;;13.79;64.52;97778.22;5034438;28;20315;-59
2022/08/11 05:56:59;;;;;;;4.68;2.80;;;;;;;14.89;63.56;97783.00;5045258;28;20507;-58
2022/08/11 05:59:27;;;;;;;4.70;2.80;;;;;;;15.10;61.93;97782.25;5035148;28;20065;-58
2022/08/11 06:02:00;;;;;;;5.45;2.90;;;;;;;15.27;61.66;97781.97;5045566;28;20302;-59
2022/08/11 06:04:27;;;;;;;5.45;3.08;;;;;;;15.50;59.30;97780.59;5033439;28;20045;-57
2022/08/11 06:07:00;;;;;;;6.13;2.65;;;;;;;15.76;57.09;97791.47;5037837;28;20049;-58
2022/08/11 06:09:45;;;;;;;4.10;2.70;;;;;;;16.19;55.88;97788.41;5045312;28;20439;-59
2022/08/11 06:12:19;;;;;;;6.90;2.97;;;;;;;16.56;54.41;97794.53;5044517;28;20063;-59
2022/08/11 06:14:49;;;;;;;6.35;2.75;;;;;;;16.73;54.07;97791.41;5045826;28;20687;-58
2022/08/11 06:17:23;;;;;;;7.57;2.70;;;;;;;16.90;53.95;97791.06;5041090;28;20327;-56
2022/08/11 06:19:56;;;;;;;3.65;2.35;;;;;;;17.02;53.30;97782.50;5039436;28;20041;-58
2022/08/11 06:22:33;;;;;;;4.95;2.85;;;;;;;17.20;53.07;97788.41;5042915;28;20045;-58
2022/08/11 06:25:01;;;;;;;7.47;2.78;;;;;;;17.32;52.38;97799.00;5045309;28;20136;-59
2022/08/11 06:27:32;;;;;;;4.60;2.90;;;;;;;17.44;51.94;97789.59;5039255;28;20049;-57
2022/08/11 06:30:00;;;;;;;4.37;2.80;;;;;;;17.55;51.69;97793.91;5044281;28;20049;-58
2022/08/11 06:32:34;;;;;;;5.68;2.42;;;;;;;17.70;51.98;97790.19;5045248;28;20397;-58
2022/08/11 06:35:20;;;;;;;5.22;2.83;;;;;;;17.86;50.92;97790.03;5044582;28;20049;-58
2022/08/11 06:37:56;;;;;;;6.18;2.80;;;;;;;17.97;50.65;97791.56;5032769;28;20033;-57
2022/08/11 06:44:01;;;;;;;4.70;2.38;;;;;;;18.32;49.60;97789.53;5038216;28;20505;-57
2022/08/11 06:46:37;;;;;;;4.32;2.65;;;;;;;18.54;49.52;97784.63;5038736;28;20048;-59
2022/08/11 06:52:03;;;;;;;8.63;2.15;;;;;;;19.01;47.99;97782.03;5043793;28;20044;-58
2022/08/11 06:54:35;;;;;;;6.38;2.55;;;;;;;19.22;47.52;97790.00;5035974;28;20488;-58
2022/08/11 07:00:26;;;;;;;3.90;2.35;;;;;;;19.45;46.70;97785.50;5041798;28;20443;-56
2022/08/11 07:03:07;;;;;;;4.18;2.58;;;;;;;19.59;46.49;97785.53;5040180;28;20215;-58
2022/08/11 07:05:36;;;;;;;5.90;2.90;;;;;;;19.67;46.62;97784.03;5031734;28;20045;-56
2022/08/11 07:17:23;;;;;;;4.47;2.50;;;;;;;19.87;45.30;97791.09;5036503;28;20041;-60
2022/08/11 07:31:41;;;;;;;5.18;2.47;;;;;;;20.28;44.79;97788.72;5044767;28;20248;-58
2022/08/11 07:34:18;;;;;;;5.70;2.30;;;;;;;20.37;44.77;97786.88;5035115;28;20068;-59
2022/08/11 07:36:54;;;;;;;5.95;2.38;;;;;;;20.47;44.30;97779.50;5038295;28;20816;-58
2022/08/11 07:39:24;;;;;;;4.50;2.50;;;;;;;20.50;44.58;97781.66;5038950;28;20429;-59
2022/08/11 07:41:53;;;;;;;6.78;2.92;;;;;;;20.56;44.54;97774.13;5042559;28;20049;-58
2022/08/11 07:44:21;;;;;;;4.80;2.70;;;;;;;20.62;44.81;97776.44;5043674;28;20055;-57
2022/08/11 07:52:32;;;;;;;6.05;2.78;;;;;;;21.11;43.46;97778.69;5040730;28;20539;-61
2022/08/11 07:55:15;;;;;;;6.20;2.58;;;;;;;21.22;43.22;97772.94;5031355;28;20049;-59
2022/08/11 08:17:47;;;;;;;6.45;2.40;;;;;;;21.95;40.53;97782.94;5039635;28;20571;-59
2022/08/11 08:20:38;;;;;;;6.75;2.45;;;;;;;;;;5044580;28;20036;-59
2022/08/11 08:23:06;;;;;;;6.32;2.30;;;;;;;22.10;41.27;97773.44;5046139;28;20045;-60
2022/08/11 08:25:35;;;;;;;4.85;2.38;;;;;;;22.18;40.83;97780.94;5044294;28;20041;-60
2022/08/11 08:28:05;;;;;;;8.60;2.45;;;;;;;22.28;41.00;97774.31;5042075;28;20463;-61
2022/08/11 08:30:49;;;;;;;6.03;2.30;;;;;;;22.33;40.58;97778.84;5041565;28;20440;-61
2022/08/11 08:33:23;;;;;;;6.43;2.53;;;;;;;22.45;40.32;97779.06;5044839;28;20211;-60
2022/08/11 08:38:48;;;;;;;6.65;2.25;;;;;;;22.64;39.32;97778.00;5040706;28;20447;-60
2022/08/11 08:41:25;;;;;;;6.05;2.55;;;;;;;22.64;39.52;97778.00;5042225;28;20037;-58
2022/08/11 08:43:56;;;;;;;7.00;2.40;;;;;;;22.71;39.52;97777.53;5038890;28;20040;-58
2022/08/11 08:46:49;;;;;;;4.68;2.50;;;;;;;22.78;39.28;97768.78;5029159;28;20196;-59
2022/08/11 08:49:22;;;;;;;4.25;2.45;;;;;;;22.81;39.59;97768.94;5025253;28;20045;-58
2022/08/11 08:51:52;;;;;;;9.85;2.67;;;;;;;22.89;39.35;97769.25;5027965;28;20125;-57
2022/08/11 08:54:36;;;;;;;5.15;2.55;;;;;;;23.00;39.41;97767.81;5029916;28;20045;-58
2022/08/11 08:57:05;;;;;;;8.88;2.80;;;;;;;23.04;39.23;97760.50;5037553;28;20041;-60
2022/08/11 08:59:39;;;;;;;4.93;2.33;;;;;;;23.15;39.29;97755.47;5044848;28;20041;-62
2022/08/11 09:02:18;;;;;;;7.93;2.78;;;;;;;23.25;38.91;97760.63;5030903;28;20128;-58
2022/08/11 09:05:00;;;;;;;5.18;2.78;;;;;;;23.30;38.03;97767.97;5024524;28;20346;-60
2022/08/11 09:07:27;;;;;;;4.65;2.28;;;;;;;23.35;38.22;97759.53;5045104;28;20067;-61
2022/08/11 09:10:07;;;;;;;4.57;2.22;;;;;;;23.57;36.65;97767.94;5040295;28;20063;-60
2022/08/11 09:12:34;;;;;;;4.03;2.33;;;;;;;23.73;36.25;97760.72;5036982;28;20088;-60
2022/08/11 09:15:07;;;;;;;3.83;1.92;;;;;;;23.78;35.80;97757.00;5032691;28;20048;-60
2022/08/11 09:17:44;;;;;;;5.50;2.33;;;;;;;23.87;35.50;97756.94;5039695;28;20048;-61
2022/08/11 09:20:18;;;;;;;3.65;2.08;;;;;;;23.98;36.89;97760.97;5039840;28;20139;-60
2022/08/11 09:28:43;;;;;;;3.55;2.00;;;;;;;24.23;34.58;97761.22;5045263;28;20121;-61
2022/08/11 09:31:11;;;;;;;5.07;2.13;;;;;;;24.37;33.41;97758.22;5045365;28;20064;-61
2022/08/11 09:33:41;;;;;;;3.22;1.92;;;;;;;24.41;33.22;97750.88;5037548;28;20077;-61
2022/08/11 09:41:44;;;;;;;3.50;1.90;;;;;;;24.57;33.23;97766.09;5044655;28;20053;-60
2022/08/11 09:44:48;;;;;;;6.10;1.75;;;;;;;24.65;30.84;97773.50;5045550;28;20049;-60
2022/08/11 09:47:20;;;;;;;5.40;1.60;;;;;;;24.78;31.72;97766.09;5035530;28;20049;-60
2022/08/11 09:49:47;;;;;;;;;;;;;;;24.81;31.56;97762.66;5048370;28;20444;-58
2022/08/11 09:52:17;;;;;;;4.30;1.92;;;;;;;24.86;31.13;97769.97;5031838;28;19944;-59
2022/08/11 09:54:46;;;;;;;4.03;1.70;;;;;;;24.81;31.15;97757.13;5028482;28;20589;-59
2022/08/11 10:00:04;;;;;;;3.58;1.90;;;;;;;24.69;30.50;97752.31;5041491;28;20045;-61
2022/08/11 10:02:49;;;;;;;3.85;1.80;;;;;;;24.54;30.34;97756.47;5042560;28;20133;-60
2022/08/11 10:08:06;;;;;;;5.00;1.88;;;;;;;24.79;30.78;97746.38;5043557;28;20073;-61
2022/08/11 10:10:37;;;;;;;3.65;1.75;;;;;;;24.91;30.88;97742.09;5044647;28;20056;-61
2022/08/11 10:13:07;;;;;;;2.78;1.45;;;;;;;25.00;30.91;97756.69;5045610;28;20052;-61
2022/08/11 10:15:57;;;;;;;5.25;1.80;;;;;;;25.10;30.68;97761.00;5041367;28;20049;-61
2022/08/11 10:18:41;;;;;;;6.00;1.90;;;;;;;25.07;29.99;97756.94;5045221;28;20040;-61
2022/08/11 10:21:22;;;;;;;4.32;1.70;;;;;;;24.94;29.52;97756.06;5038603;28;20044;-61
2022/08/11 10:26:53;;;;;;;3.28;1.58;;;;;;;25.21;29.18;97750.31;5044487;28;20663;-64
2022/08/11 10:35:26;;;;;;;5.68;1.80;;;;;;;25.66;27.26;97740.44;5044194;28;20048;-64
2022/08/11 10:37:54;;;;;;;5.05;1.70;;;;;;;25.78;27.12;97733.25;5049010;28;20046;-64
2022/08/11 10:40:38;;;;;;;3.30;1.83;;;;;;;25.78;27.84;97725.75;5042478;28;20056;-64
2022/08/11 10:43:09;;;;;;;2.42;1.50;;;;;;;25.63;28.99;97724.47;5033303;28;20513;-63
2022/08/11 10:48:26;;;;;;;3.50;1.70;;;;;;;25.41;29.29;97726.47;5045109;28;19934;-64
2022/08/11 10:51:13;;;;;;;2.90;1.45;;;;;;;25.68;29.39;97724.25;5044729;28;20052;-64
2022/08/11 10:59:23;;;;;;;6.20;2.00;;;;;;;25.73;28.50;97703.81;5044340;28;19994;-63
2022/08/11 11:01:52;;;;;;;2.95;1.60;;;;;;;25.82;28.84;97720.31;5044029;28;20049;-68
2022/08/11 11:04:56;;;;;;;6.22;1.60;;;;;;;26.03;28.49;97708.31;5044534;28;20159;-67
2022/08/11 11:07:29;;;;;;;4.70;1.80;;;;;;;26.06;28.78;97715.97;5022770;28;20392;-66
2022/08/11 11:10:00;;;;;;;4.13;2.05;;;;;;;26.05;27.75;97698.50;5015534;28;20045;-65
2022/08/11 11:18:20;;;;;;;4.75;1.67;;;;;;;26.31;28.40;97689.00;5011819;28;20064;-66
2022/08/11 11:20:56;;;;;;;3.75;1.55;;;;;;;26.39;27.86;97687.28;5022430;28;20056;-64
2022/08/11 11:23:46;;;;;;;4.72;1.70;;;;;;;26.26;27.61;97688.41;5015787;28;20098;-66
2022/08/11 11:26:40;;;;;;;2.55;1.45;;;;;;;26.30;27.35;97695.72;5012638;28;20038;-66
2022/08/11 11:29:32;;;;;;;3.03;1.52;;;;;;;26.55;26.89;97689.31;5024765;28;20045;-65
2022/08/11 11:32:28;;;;;;;4.20;1.83;;;;;;;26.76;26.83;97686.38;5023466;28;20040;-63
2022/08/11 11:34:58;;;;;;;2.95;1.60;;;;;;;26.88;26.41;97677.19;5024172;28;20057;-61
2022/08/11 11:37:25;;;;;;;3.90;1.70;;;;;;;26.94;26.54;97674.97;5019362;28;20045;-62
2022/08/11 11:39:53;;;;;;;3.85;1.70;;;;;;;26.98;26.84;97679.47;5020368;28;20402;-63
2022/08/11 11:42:21;;;;;;;6.28;1.48;;;;;;;27.08;25.97;97669.81;5023460;28;20049;-62
2022/08/11 11:44:49;;;;;;;4.90;1.70;;;;;;;27.11;25.80;97673.88;5021404;28;20088;-64
2022/08/11 11:47:21;;;;;;;4.30;1.83;;;;;;;26.90;26.42;97662.94;5022628;28;20049;-64
2022/08/11 11:49:49;;;;;;;4.10;1.75;;;;;;;26.91;26.86;97676.50;5019782;28;20038;-66
2022/08/11 11:52:19;;;;;;;2.42;1.42;;;;;;;26.59;27.11;97676.34;5017396;28;20045;-64
2022/08/11 11:54:50;;;;;;;4.85;1.52;;;;;;;26.49;26.88;97672.91;5025895;28;20049;-65
2022/08/11 12:03:02;;;;;;;3.20;1.73;;;;;;;26.93;26.52;97665.03;5019031;28;20140;-65
2022/08/11 12:05:32;;;;;;;3.00;1.60;;;;;;;26.69;26.18;97658.41;5020382;28;20045;-65
2022/08/11 12:08:16;;;;;;;3.33;1.60;;;;;;;26.75;26.25;97657.78;5024024;28;20501;-63
2022/08/11 12:10:47;;;;;;;3.55;1.70;;;;;;;26.90;25.88;97647.06;5023087;28;20048;-64
2022/08/11 12:16:02;;;;;;;3.33;1.77;;;;;;;27.11;25.49;97657.19;5021530;28;20517;-66
2022/08/11 12:18:55;;;;;;;5.80;1.40;;;;;;;27.14;25.72;97648.16;5015730;28;20513;-64
2022/08/11 12:21:23;;;;;;;6.53;1.80;;;;;;;27.25;25.53;97640.91;5014904;28;20471;-66
2022/08/11 12:29:47;;;;;;;3.10;1.65;;;;;;;27.40;24.77;97636.53;5021330;28;20038;-65
2022/08/11 12:32:24;;;;;;;3.22;1.65;;;;;;;27.73;24.82;97645.72;5023348;28;20128;-66
2022/08/11 12:34:52;;;;;;;2.75;1.50;;;;;;;27.77;24.38;97643.81;5023522;28;20071;-66
2022/08/11 12:37:23;;;;;;;3.85;1.48;;;;;;;27.77;24.37;97645.78;5022769;28;20049;-65
2022/08/11 12:46:07;;;;;;;4.00;1.48;;;;;;;27.69;24.72;97635.66;5015574;28;20073;-67
2022/08/11 12:51:57;;;;;;;4.05;1.98;;;;;;;27.82;24.31;97630.81;5022896;28;20506;-68
2022/08/11 12:54:58;;;;;;;4.20;1.48;;;;;;;28.03;24.21;97616.56;5023835;28;20037;-69
2022/08/11 13:06:06;;;;;;;3.33;1.70;;;;;;;28.40;23.63;97607.88;5023104;28;20041;-67
2022/08/11 13:08:35;;;;;;;4.38;1.40;;;;;;;28.21;23.74;97596.69;5027572;28;20044;-66
2022/08/11 13:13:51;;;;;;;2.50;1.35;;;;;;;28.85;23.05;97595.63;5018711;28;20053;-61
2022/08/11 13:16:27;;;;;;;4.70;1.73;;;;;;;28.68;23.04;97586.53;5018839;28;20353;-63
2022/08/11 13:18:57;;;;;;;5.03;1.65;;;;;;;28.91;22.84;97586.63;5013704;28;20302;-63
2022/08/11 13:21:25;;;;;;;5.30;1.45;;;;;;;29.25;22.07;97585.22;5013726;28;20046;-65
2022/08/11 13:23:54;;;;;;;4.00;1.52;;;;;;;29.37;21.99;97571.06;5026786;28;20124;-64
2022/08/11 13:26:32;;;;;;;4.68;1.88;;;;;;;29.65;22.00;97583.06;5025123;28;20092;-64
2022/08/11 13:29:27;;;;;;;2.85;1.38;;;;;;;30.26;21.63;97588.78;5023977;28;20487;-62
2022/08/11 13:32:00;;;;;;;2.75;1.38;;;;;;;30.91;20.78;97588.75;5026047;28;20455;-64
2022/08/11 13:34:34;;;;;;;3.00;1.33;;;;;;;31.30;20.39;97592.31;5024919;28;20053;-60
2022/08/11 13:37:03;;;;;;;3.28;1.65;;;;;;;31.82;19.85;97577.53;5025626;28;20630;-65
2022/08/11 13:39:33;;;;;;;3.00;1.50;;;;;;;31.84;19.30;97569.56;5021555;28;20133;-64
2022/08/11 13:42:01;;;;;;;3.13;1.52;;;;;;;31.82;19.44;97577.53;5020715;28;20042;-64
2022/08/11 13:44:34;;;;;;;3.53;1.70;;;;;;;31.61;19.72;97570.63;5021332;28;20044;-60
2022/08/11 13:47:05;;;;;;;2.75;1.50;;;;;;;30.75;20.35;97561.03;5018690;28;20520;-63
2022/08/11 13:49:35;;;;;;;5.50;1.58;;;;;;;31.12;20.25;97559.41;5022524;28;20052;-61
2022/08/11 13:52:08;;;;;;;4.50;1.60;;;;;;;30.40;21.02;97560.19;5025340;28;20132;-65
2022/08/11 13:54:39;;;;;;;2.10;1.25;;;;;;;30.64;20.79;97552.50;5025353;28;20045;-64
2022/08/11 13:57:07;;;;;;;2.47;1.50;;;;;;;31.08;20.60;97553.78;5025880;28;20487;-65
2022/08/11 14:00:08;;;;;;;2.55;1.55;;;;;;;31.48;19.36;97567.31;5023737;28;20103;-62
2022/08/11 14:02:42;;;;;;;2.63;1.30;;;;;;;31.40;19.50;97549.69;5024978;28;20049;-63
2022/08/11 14:05:14;;;;;;;4.78;1.45;;;;;;;31.97;18.94;97544.88;5024719;28;20124;-62
2022/08/11 14:07:48;;;;;;;5.50;1.40;;;;;;;31.54;19.30;97554.56;5025113;28;20054;-62
2022/08/11 14:10:17;;;;;;;2.85;1.50;;;;;;;32.09;18.36;97552.16;5024851;28;20049;-62
2022/08/11 14:15:41;;;;;;;2.70;1.15;;;;;;;31.58;18.85;97541.41;5025522;28;20041;-63
2022/08/11 14:18:12;;;;;;;;;;;;;;;31.80;18.43;97533.13;5024623;28;20041;-62
2022/08/11 14:23:49;;;;;;;3.40;1.52;;;;;;;32.43;17.81;97535.88;5021658;28;20053;-62
2022/08/11 14:26:25;;;;;;;3.00;1.70;;;;;;;32.26;17.83;97528.19;5025819;28;20053;-63
2022/08/11 14:29:00;;;;;;;2.53;1.35;;;;;;;32.51;17.78;97522.72;5017932;28;20212;-62
2022/08/11 14:31:33;;;;;;;3.40;1.30;;;;;;;32.82;17.37;97536.41;5023646;28;20524;-62
2022/08/11 14:34:05;;;;;;;6.55;1.30;;;;;;;32.16;18.23;97533.38;5024573;28;20045;-61
2022/08/11 14:36:38;;;;;;;2.38;1.30;;;;;;;31.61;18.06;97526.63;5021804;28;20053;-63
2022/08/11 14:39:11;;;;;;;3.10;1.30;;;;;;;31.97;17.94;97511.28;5019988;28;20075;-62
2022/08/11 14:47:31;;;;;;;3.22;1.45;;;;;;;31.96;17.64;97518.06;5016932;28;20570;-64
2022/08/11 14:49:59;;;;;;;2.53;1.40;;;;;;;32.69;17.26;97513.56;5024282;28;20053;-61
2022/08/11 14:52:55;;;;;;;5.57;1.23;;;;;;;32.26;17.98;97505.78;5009250;28;20613;-61
2022/08/11 14:58:22;;;;;;;4.30;1.10;;;;;;;32.25;17.01;97505.00;5017091;28;20473;-61
2022/08/11 15:00:52;;;;;;;4.18;1.27;;;;;;;32.07;17.36;97498.50;5019448;28;20046;-59
2022/08/11 15:03:21;;;;;;;2.08;1.25;;;;;;;32.17;17.52;97497.78;5025294;28;20501;-60
2022/08/11 15:05:56;;;;;;;4.40;1.20;;;;;;;31.46;17.89;97497.75;5014148;28;20065;-62
2022/08/11 15:14:09;;;;;;;2.55;1.20;;;;;;;32.63;17.08;97492.72;5024346;28;20048;-62
2022/08/11 15:19:30;;;;;;;3.45;1.15;;;;;;;32.56;17.20;97485.09;5022363;28;20049;-60
2022/08/11 15:24:54;;;;;;;4.50;1.27;;;;;;;32.46;17.49;97485.88;5011159;28;20135;-63
2022/08/11 15:38:46;;;;;;;4.05;1.20;;;;;;;32.19;17.72;97472.97;5023317;28;20456;-63
2022/08/11 15:47:13;;;;;;;1.83;1.20;;;;;;;33.14;16.69;97470.34;5019936;28;20266;-60
2022/08/11 15:49:43;;;;;;;4.05;1.55;;;;;;;32.55;16.70;97469.50;5021149;28;20059;-61
2022/08/11 15:52:33;;;;;;;2.75;1.20;;;;;;;33.30;16.25;97464.31;5023954;28;20042;-61
2022/08/11 15:55:05;;;;;;;4.40;1.30;;;;;;;33.36;16.18;97454.31;5017861;28;20390;-62
2022/08/11 16:06:14;;;;;;;3.17;1.30;;;;;;;31.87;17.34;97452.00;5015919;28;20316;-61
2022/08/11 16:08:43;;;;;;;3.90;1.25;;;;;;;31.62;17.78;97447.09;5022960;28;20568;-63
2022/08/11 16:11:11;;;;;;;3.72;1.30;;;;;;;31.19;18.45;97455.19;5020877;28;20497;-62
2022/08/11 16:16:13;;;;;;;7.00;1.42;;;;;;;31.06;18.20;97449.91;5019571;28;20045;-62
2022/08/11 16:18:51;;;;;;;3.75;1.45;;;;;;;31.37;18.11;97441.34;5021279;28;20040;-61
2022/08/11 16:21:22;;;;;;;4.43;1.13;;;;;;;31.65;17.91;97437.91;5022514;28;20547;-62
2022/08/11 16:24:05;;;;;;;3.72;1.50;;;;;;;31.75;17.52;97443.94;5016321;28;20167;-62
2022/08/11 16:26:35;;;;;;;3.72;1.15;;;;;;;31.25;18.40;97437.66;5012625;28;20124;-62
2022/08/11 16:29:24;;;;;;;3.47;1.30;;;;;;;30.71;18.72;97435.22;5021510;28;20065;-61
2022/08/11 16:40:12;;;;;;;4.95;1.42;;;;;;;29.20;19.89;97431.00;5027304;28;20497;-64
2022/08/11 16:48:27;;;;;;;2.92;1.48;;;;;;;29.23;20.01;97423.06;5026851;28;20107;-61
2022/08/11 16:51:09;;;;;;;3.50;1.30;;;;;;;28.77;20.18;97427.50;5020513;28;20069;-62
2022/08/11 16:53:38;;;;;;;4.68;1.30;;;;;;;28.52;20.72;97425.09;5021364;28;20053;-61
2022/08/11 16:56:36;;;;;;;2.85;1.30;;;;;;;28.46;21.04;97429.34;5025232;28;20141;-62
2022/08/11 16:59:14;;;;;;;6.65;1.60;;;;;;;28.66;21.01;97430.91;5026337;28;20049;-62
2022/08/11 17:01:46;;;;;;;2.70;1.33;;;;;;;28.79;21.12;97433.50;5026672;28;20128;-66
2022/08/11 17:13:30;;;;;;;3.17;1.40;;;;;;;28.25;21.36;97425.78;5024884;28;20041;-63
2022/08/11 17:16:07;;;;;;;6.80;1.70;;;;;;;28.08;21.17;97421.47;5022766;28;20042;-63
2022/08/11 17:18:43;;;;;;;3.60;1.38;;;;;;;27.93;21.64;97420.38;5019303;28;20052;-64
2022/08/11 17:21:15;;;;;;;3.22;1.50;;;;;;;27.95;21.69;97423.63;5022307;28;20654;-63
2022/08/11 17:23:47;;;;;;;3.03;1.42;;;;;;;27.98;21.73;97420.13;5027227;28;20041;-62
2022/08/11 17:26:17;;;;;;;3.58;1.50;;;;;;;28.04;21.64;97418.63;5012338;28;20128;-63